createdAt,value
2018-05-26T00:01:15.359Z,62.30
2018-05-26T00:03:44.427Z,62.50
2018-05-26T00:06:13.484Z,62.50
2018-05-26T00:08:43.294Z,62.10
2018-05-26T00:11:13.094Z,62.20
2018-05-26T00:13:43.033Z,62.30
2018-05-26T00:16:12.798Z,62.30
2018-05-26T00:18:41.862Z,62.30
2018-05-26T00:21:10.872Z,62.30
2018-05-26T00:23:39.920Z,62.40
2018-05-26T00:26:09.688Z,62.80
2018-05-26T00:28:38.720Z,62.70
2018-05-26T00:31:07.755Z,62.90
2018-05-26T00:33:36.822Z,62.80
2018-05-26T00:36:05.855Z,62.80
2018-05-26T00:38:36.000Z,63.00
2018-05-26T00:41:12.064Z,63.10
2018-05-26T00:43:42.306Z,62.80
2018-05-26T00:46:11.313Z,62.80
2018-05-26T00:48:46.253Z,63.00
2018-05-26T00:51:22.113Z,62.90
2018-05-26T00:53:53.954Z,63.20
2018-05-26T00:56:23.067Z,63.20
2018-05-26T00:58:52.173Z,63.00
2018-05-26T01:01:21.228Z,62.40
2018-05-26T01:03:50.281Z,62.60
2018-05-26T01:06:19.321Z,62.40
2018-05-26T01:08:48.379Z,62.30
2018-05-26T01:11:17.699Z,63.10
2018-05-26T01:13:47.593Z,63.30
2018-05-26T01:16:16.649Z,63.50
2018-05-26T01:18:45.673Z,63.50
2018-05-26T01:21:14.706Z,63.90
2018-05-26T01:23:43.871Z,64.20
2018-05-26T01:26:12.900Z,63.50
2018-05-26T01:28:41.958Z,63.70
2018-05-26T01:31:11.770Z,63.80
2018-05-26T01:33:40.977Z,63.80
2018-05-26T01:36:10.781Z,65.00
2018-05-26T01:38:39.796Z,65.00
2018-05-26T01:41:08.831Z,65.20
2018-05-26T01:43:38.002Z,65.40
2018-05-26T01:46:07.105Z,65.00
2018-05-26T01:48:36.175Z,65.20
2018-05-26T01:51:05.974Z,65.20
2018-05-26T01:53:35.031Z,65.10
2018-05-26T01:56:04.148Z,65.20
2018-05-26T01:58:33.191Z,65.20
2018-05-26T02:01:02.207Z,66.00
2018-05-26T02:03:31.265Z,65.00
2018-05-26T02:06:00.290Z,65.20
2018-05-26T02:08:29.393Z,65.80
2018-05-26T02:10:58.402Z,66.10
2018-05-26T02:13:27.439Z,66.30
2018-05-26T02:15:56.467Z,66.90
2018-05-26T02:18:25.503Z,66.50
2018-05-26T02:20:55.283Z,66.40
2018-05-26T02:23:24.323Z,66.40
2018-05-26T02:25:53.357Z,66.60
2018-05-26T02:28:22.395Z,66.50
2018-05-26T02:30:52.203Z,66.40
2018-05-26T02:33:22.022Z,66.60
2018-05-26T02:35:51.070Z,66.70
2018-05-26T02:38:20.129Z,67.10
2018-05-26T02:40:49.206Z,67.30
2018-05-26T02:43:19.031Z,67.70
2018-05-26T02:45:48.855Z,67.60
2018-05-26T02:48:17.901Z,67.60
2018-05-26T02:50:47.097Z,68.00
2018-05-26T02:53:16.151Z,68.20
2018-05-26T02:55:45.215Z,68.40
2018-05-26T02:58:14.261Z,68.60
2018-05-26T03:00:43.339Z,68.60
2018-05-26T03:03:12.105Z,68.50
2018-05-26T03:05:46.610Z,69.00
2018-05-26T03:08:21.096Z,69.00
2018-05-26T03:10:55.438Z,69.10
2018-05-26T03:13:29.931Z,69.30
2018-05-26T03:19:01.865Z,68.70
2018-05-26T03:21:30.570Z,68.70
2018-05-26T03:23:59.598Z,68.50
2018-05-26T03:26:28.662Z,69.10
2018-05-26T03:28:57.728Z,67.70
2018-05-26T03:31:26.790Z,68.00
2018-05-26T03:33:55.854Z,68.00
2018-05-26T03:36:25.729Z,67.80
2018-05-26T03:38:55.187Z,67.80
2018-05-26T03:41:24.266Z,67.60
2018-05-26T03:43:53.340Z,67.80
2018-05-26T03:46:22.411Z,67.60
2018-05-26T03:48:51.508Z,67.90
2018-05-26T03:51:20.611Z,68.10
2018-05-26T03:53:49.629Z,68.40
2018-05-26T03:56:29.961Z,68.00
2018-05-26T03:59:10.370Z,67.30
2018-05-26T04:01:40.183Z,66.40
2018-05-26T04:04:09.206Z,65.90
2018-05-26T04:06:38.252Z,65.60
2018-05-26T04:09:07.280Z,65.50
2018-05-26T04:11:37.113Z,65.00
2018-05-26T04:14:05.804Z,65.00
2018-05-26T04:16:34.889Z,63.60
2018-05-26T04:19:04.666Z,61.10
2018-05-26T04:21:33.707Z,61.00
2018-05-26T04:24:02.753Z,61.10
2018-05-26T04:26:32.624Z,58.90
2018-05-26T04:29:01.707Z,58.90
2018-05-26T04:31:30.761Z,58.80
2018-05-26T04:33:59.930Z,60.20
2018-05-26T04:36:28.995Z,60.00
2018-05-26T04:38:58.038Z,62.00
2018-05-26T04:41:27.849Z,62.60
2018-05-26T04:43:56.867Z,61.80
2018-05-26T04:46:25.903Z,61.60
2018-05-26T04:48:54.927Z,61.80
2018-05-26T04:51:24.054Z,61.60
2018-05-26T04:53:53.816Z,61.10
2018-05-26T04:56:22.860Z,61.20
2018-05-26T04:58:51.895Z,61.10
2018-05-26T05:01:20.941Z,58.20
2018-05-26T05:03:49.967Z,58.30
2018-05-26T05:06:19.189Z,60.80
2018-05-26T05:08:48.235Z,59.80
2018-05-26T05:11:17.251Z,60.10
2018-05-26T05:13:46.280Z,59.50
2018-05-26T05:16:15.393Z,57.50
2018-05-26T05:18:45.167Z,58.10
2018-05-26T05:21:14.283Z,58.10
2018-05-26T05:23:43.480Z,55.30
2018-05-26T05:26:12.531Z,53.30
2018-05-26T05:28:41.294Z,57.20
2018-05-26T05:31:10.402Z,59.90
2018-05-26T05:33:39.456Z,58.20
2018-05-26T05:36:08.487Z,59.30
2018-05-26T05:38:37.573Z,55.80
2018-05-26T05:41:07.350Z,54.40
2018-05-26T05:43:37.195Z,60.40
2018-05-26T05:46:06.203Z,60.40
2018-05-26T05:48:35.263Z,60.90
2018-05-26T05:51:04.281Z,57.80
2018-05-26T05:53:33.321Z,55.70
2018-05-26T05:56:02.447Z,53.20
2018-05-26T05:58:32.042Z,49.00
2018-05-26T06:01:01.648Z,47.40
2018-05-26T06:03:31.268Z,46.70
2018-05-26T06:06:00.852Z,45.20
2018-05-26T06:08:30.472Z,44.70
2018-05-26T06:11:00.062Z,39.60
2018-05-26T06:13:29.656Z,36.80
2018-05-26T06:15:59.250Z,34.00
2018-05-26T06:18:29.600Z,36.60
2018-05-26T06:20:59.210Z,36.60
2018-05-26T06:23:29.229Z,38.60
2018-05-26T06:25:58.817Z,38.80
2018-05-26T06:28:28.413Z,38.60
2018-05-26T06:30:58.013Z,39.10
2018-05-26T06:33:29.049Z,37.50
2018-05-26T06:35:59.481Z,31.40
2018-05-26T06:38:29.236Z,31.30
2018-05-26T06:40:58.847Z,28.50
2018-05-26T06:43:29.207Z,26.80
2018-05-26T06:45:58.895Z,29.70
2018-05-26T06:48:28.512Z,35.70
2018-05-26T06:50:58.893Z,31.70
2018-05-26T06:53:29.366Z,31.60
2018-05-26T06:55:59.036Z,26.00
2018-05-26T06:58:28.989Z,24.80
2018-05-26T07:00:58.806Z,24.40
2018-05-26T07:03:28.148Z,26.00
2018-05-26T07:05:57.532Z,24.00
2018-05-26T07:08:26.962Z,27.00
2018-05-26T07:10:56.282Z,32.10
2018-05-26T07:13:25.728Z,29.30
2018-05-26T07:15:56.108Z,29.80
2018-05-26T07:18:26.264Z,25.10
2018-05-26T07:20:56.492Z,24.30
2018-05-26T07:23:25.959Z,24.20
2018-05-26T07:25:55.307Z,24.90
2018-05-26T07:28:24.681Z,27.60
2018-05-26T07:30:53.969Z,25.50
2018-05-26T07:33:23.273Z,24.50
2018-05-26T07:35:53.335Z,22.30
2018-05-26T07:38:22.649Z,21.80
2018-05-26T07:40:51.984Z,24.10
2018-05-26T07:43:21.300Z,27.50
2018-05-26T07:45:50.585Z,23.60
2018-05-26T07:48:19.902Z,21.60
2018-05-26T07:50:49.218Z,22.70
2018-05-26T07:53:18.532Z,21.30
2018-05-26T07:55:47.858Z,21.00
2018-05-26T07:58:17.211Z,27.80
2018-05-26T08:00:47.322Z,25.20
2018-05-26T08:03:17.592Z,24.20
2018-05-26T08:05:46.933Z,24.20
2018-05-26T08:08:16.220Z,28.80
2018-05-26T08:10:45.526Z,24.70
2018-05-26T08:13:14.845Z,23.00
2018-05-26T08:15:44.950Z,21.40
2018-05-26T08:18:14.247Z,21.40
2018-05-26T08:20:44.366Z,25.30
2018-05-26T08:23:13.791Z,25.30
2018-05-26T08:25:43.955Z,21.50
2018-05-26T08:28:13.342Z,21.40
2018-05-26T08:30:42.758Z,21.80
2018-05-26T08:33:11.755Z,21.20
2018-05-26T08:35:41.837Z,20.90
2018-05-26T08:38:11.483Z,20.40
2018-05-26T08:40:40.943Z,20.00
2018-05-26T08:43:10.283Z,20.20
2018-05-26T08:45:39.335Z,21.70
2018-05-26T08:48:09.605Z,25.80
2018-05-26T08:50:39.001Z,25.80
2018-05-26T08:53:08.363Z,23.30
2018-05-26T08:55:38.423Z,26.80
2018-05-26T08:58:07.737Z,26.80
2018-05-26T09:00:37.061Z,27.60
2018-05-26T09:03:07.123Z,22.90
2018-05-26T09:05:36.501Z,22.80
2018-05-26T09:08:06.059Z,22.10
2018-05-26T09:10:35.346Z,24.50
2018-05-26T09:13:04.651Z,22.20
2018-05-26T09:15:33.954Z,21.20
2018-05-26T09:18:03.247Z,21.90
2018-05-26T09:20:32.577Z,21.90
2018-05-26T09:23:01.874Z,21.50
2018-05-26T09:25:31.998Z,22.50
2018-05-26T09:28:01.522Z,22.10
2018-05-26T09:30:30.820Z,23.60
2018-05-26T09:33:00.149Z,22.70
2018-05-26T09:35:29.452Z,21.20
2018-05-26T09:37:58.758Z,22.50
2018-05-26T09:40:28.080Z,22.10
2018-05-26T09:42:58.512Z,24.30
2018-05-26T09:45:27.859Z,24.30
2018-05-26T09:47:57.198Z,28.80
2018-05-26T09:50:26.819Z,27.40
2018-05-26T09:52:56.129Z,23.70
2018-05-26T09:55:25.557Z,22.50
2018-05-26T09:57:54.971Z,22.00
2018-05-26T10:00:24.576Z,22.60
2018-05-26T10:02:53.930Z,23.70
2018-05-26T10:05:23.490Z,23.10
2018-05-26T10:07:52.885Z,24.90
2018-05-26T10:10:22.407Z,23.60
2018-05-26T10:12:52.366Z,24.70
2018-05-26T10:15:22.506Z,25.80
2018-05-26T10:17:52.726Z,26.00
2018-05-26T10:20:26.737Z,25.50
2018-05-26T10:22:58.484Z,25.40
2018-05-26T10:25:27.916Z,25.30
2018-05-26T10:28:09.225Z,23.60
2018-05-26T10:30:39.783Z,22.80
2018-05-26T10:33:12.440Z,23.50
2018-05-26T10:35:42.080Z,23.30
2018-05-26T10:38:11.719Z,25.60
2018-05-26T10:40:43.358Z,26.40
2018-05-26T10:43:13.529Z,25.40
2018-05-26T10:45:42.466Z,25.10
2018-05-26T10:48:12.050Z,26.90
2018-05-26T10:50:41.664Z,27.60
2018-05-26T10:53:11.247Z,28.20
2018-05-26T10:55:40.876Z,29.50
2018-05-26T10:58:10.461Z,30.50
2018-05-26T11:00:40.077Z,31.70
2018-05-26T11:03:09.707Z,31.90
2018-05-26T11:05:39.381Z,32.60
2018-05-26T11:08:08.995Z,33.10
2018-05-26T11:10:38.647Z,33.20
2018-05-26T11:13:08.363Z,32.30
2018-05-26T11:15:38.094Z,32.20
2018-05-26T11:18:08.962Z,32.30
2018-05-26T11:20:38.620Z,33.90
2018-05-26T11:23:08.773Z,38.40
2018-05-26T11:25:38.452Z,38.40
2018-05-26T11:28:08.094Z,38.10
2018-05-26T11:30:37.974Z,36.70
2018-05-26T11:33:07.791Z,35.40
2018-05-26T11:35:37.553Z,37.00
2018-05-26T11:38:07.336Z,36.60
2018-05-26T11:40:37.050Z,35.50
2018-05-26T11:43:06.945Z,34.30
2018-05-26T11:45:36.583Z,33.40
2018-05-26T11:48:06.216Z,33.00
2018-05-26T11:50:36.772Z,32.60
2018-05-26T11:53:06.379Z,32.60
2018-05-26T11:55:36.196Z,33.40
2018-05-26T11:58:05.805Z,33.60
2018-05-26T12:00:35.409Z,33.50
2018-05-26T12:03:04.534Z,33.70
2018-05-26T12:05:34.143Z,34.20
2018-05-26T12:08:03.753Z,34.50
2018-05-26T12:10:33.360Z,35.20
2018-05-26T12:13:02.949Z,34.80
2018-05-26T12:15:32.551Z,34.80
2018-05-26T12:18:02.135Z,35.00
2018-05-26T12:20:31.751Z,35.40
2018-05-26T12:23:01.390Z,35.10
2018-05-26T12:25:31.042Z,34.30
2018-05-26T12:28:00.642Z,34.40
2018-05-26T12:30:31.020Z,34.50
2018-05-26T12:33:00.644Z,34.50
2018-05-26T12:35:31.063Z,34.80
2018-05-26T12:38:00.668Z,34.80
2018-05-26T12:40:30.272Z,34.70
2018-05-26T12:42:59.858Z,35.50
2018-05-26T12:45:29.500Z,35.90
2018-05-26T12:47:59.106Z,36.90
2018-05-26T12:50:28.732Z,37.10
2018-05-26T12:52:59.109Z,38.10
2018-05-26T12:55:28.736Z,37.40
2018-05-26T12:57:58.326Z,37.70
2018-05-26T13:00:27.948Z,37.70
2018-05-26T13:02:57.576Z,37.00
2018-05-26T13:05:27.394Z,36.70
2018-05-26T13:07:57.021Z,36.40
2018-05-26T13:10:26.421Z,37.60
2018-05-26T13:12:56.097Z,36.60
2018-05-26T13:15:25.463Z,36.40
2018-05-26T13:17:55.057Z,36.10
2018-05-26T13:20:24.667Z,35.60
2018-05-26T13:22:54.032Z,35.20
2018-05-26T13:25:23.703Z,34.50
2018-05-26T13:27:53.848Z,35.00
2018-05-26T13:30:23.528Z,34.20
2018-05-26T13:32:53.120Z,34.00
2018-05-26T13:35:22.794Z,34.20
2018-05-26T13:37:53.174Z,33.40
2018-05-26T13:40:22.822Z,33.40
2018-05-26T13:42:53.188Z,34.20
2018-05-26T13:45:22.833Z,34.90
2018-05-26T13:47:52.436Z,33.90
2018-05-26T13:50:22.184Z,34.20
2018-05-26T13:52:51.963Z,34.50
2018-05-26T13:55:21.771Z,34.70
2018-05-26T13:57:51.565Z,35.90
2018-05-26T14:00:21.235Z,35.60
2018-05-26T14:02:50.838Z,36.30
2018-05-26T14:05:20.460Z,40.00
2018-05-26T14:07:51.449Z,43.40
2018-05-26T14:10:20.712Z,43.50
2018-05-26T14:12:50.328Z,44.90
2018-05-26T14:15:19.926Z,43.90
2018-05-26T14:17:49.540Z,43.90
2018-05-26T14:20:18.834Z,44.50
2018-05-26T14:22:48.088Z,44.30
2018-05-26T14:25:16.776Z,44.40
2018-05-26T14:27:45.822Z,45.00
2018-05-26T14:30:15.438Z,45.10
2018-05-26T14:32:45.039Z,45.20
2018-05-26T14:35:14.082Z,46.50
2018-05-26T14:37:43.160Z,46.30
2018-05-26T14:40:13.553Z,45.80
2018-05-26T14:42:42.674Z,45.80
2018-05-26T14:45:12.416Z,46.00
2018-05-26T14:47:42.994Z,46.90
2018-05-26T14:50:12.168Z,46.90
2018-05-26T14:52:41.247Z,47.10
2018-05-26T14:55:10.308Z,46.40
2018-05-26T14:57:39.447Z,47.10
2018-05-26T15:00:08.941Z,47.60
2018-05-26T15:02:38.034Z,47.50
2018-05-26T15:05:07.871Z,48.80
2018-05-26T15:07:37.719Z,49.00
2018-05-26T15:10:07.399Z,49.00
2018-05-26T15:12:36.502Z,49.10
2018-05-26T15:15:05.355Z,47.70
2018-05-26T15:17:34.419Z,48.20
2018-05-26T15:20:04.432Z,46.40
2018-05-26T15:22:33.469Z,46.40
2018-05-26T15:25:03.065Z,45.00
2018-05-26T15:27:32.115Z,44.80
2018-05-26T15:30:01.141Z,46.20
2018-05-26T15:32:30.178Z,47.80
2018-05-26T15:34:59.237Z,46.70
2018-05-26T15:37:28.312Z,47.00
2018-05-26T15:39:57.400Z,46.90
2018-05-26T15:42:26.622Z,45.90
2018-05-26T15:44:55.872Z,45.60
2018-05-26T15:47:25.048Z,45.80
2018-05-26T15:49:54.845Z,47.10
2018-05-26T15:52:24.849Z,47.30
2018-05-26T15:54:53.925Z,47.30
2018-05-26T15:57:23.054Z,47.60
2018-05-26T15:59:53.021Z,50.00
2018-05-26T16:02:22.143Z,50.00
2018-05-26T16:04:51.265Z,50.60
2018-05-26T16:07:20.373Z,50.50
2018-05-26T16:09:49.457Z,49.40
2018-05-26T16:12:18.541Z,49.30
2018-05-26T16:14:48.346Z,50.60
2018-05-26T16:17:17.395Z,50.60
2018-05-26T16:19:46.446Z,49.90
2018-05-26T16:22:16.282Z,49.40
2018-05-26T16:24:45.330Z,49.40
2018-05-26T16:27:15.151Z,49.40
2018-05-26T16:29:44.264Z,49.40
2018-05-26T16:32:14.065Z,50.10
2018-05-26T16:34:43.866Z,50.40
2018-05-26T16:37:12.907Z,50.40
2018-05-26T16:39:41.934Z,50.70
2018-05-26T16:42:10.970Z,50.30
2018-05-26T16:44:39.985Z,50.30
2018-05-26T16:47:09.032Z,50.20
2018-05-26T16:49:38.276Z,49.80
2018-05-26T16:52:06.656Z,49.50
2018-05-26T16:54:35.699Z,49.50
2018-05-26T16:57:05.526Z,48.60
2018-05-26T16:59:34.768Z,48.60
2018-05-26T17:02:04.018Z,49.20
2018-05-26T17:04:33.824Z,48.80
2018-05-26T17:07:03.728Z,48.80
2018-05-26T17:09:32.878Z,48.90
2018-05-26T17:12:01.738Z,49.20
2018-05-26T17:14:31.563Z,49.60
2018-05-26T17:17:00.631Z,49.60
2018-05-26T17:19:29.855Z,50.40
2018-05-26T17:21:58.980Z,50.30
2018-05-26T17:24:28.209Z,50.90
2018-05-26T17:26:57.271Z,51.20
2018-05-26T17:29:26.303Z,50.70
2018-05-26T17:31:55.345Z,51.30
2018-05-26T17:34:24.431Z,50.90
2018-05-26T17:36:53.462Z,51.40
2018-05-26T17:39:22.529Z,51.50
2018-05-26T17:41:51.615Z,51.20
2018-05-26T17:44:20.655Z,51.40
2018-05-26T17:46:49.686Z,51.90
2018-05-26T17:49:19.536Z,52.40
2018-05-26T17:51:48.577Z,52.40
2018-05-26T17:54:18.384Z,52.30
2018-05-26T17:56:48.228Z,51.90
2018-05-26T17:59:17.514Z,51.80
2018-05-26T18:01:46.570Z,52.50
2018-05-26T18:04:15.799Z,52.40
2018-05-26T18:06:45.354Z,53.30
2018-05-26T18:09:14.489Z,53.30
2018-05-26T18:11:43.655Z,53.60
2018-05-26T18:14:12.848Z,53.90
2018-05-26T18:16:41.901Z,54.80
2018-05-26T18:19:10.991Z,55.00
2018-05-26T18:21:40.038Z,55.30
2018-05-26T18:24:09.112Z,55.50
2018-05-26T18:26:38.156Z,55.50
2018-05-26T18:29:07.974Z,55.20
2018-05-26T18:31:37.787Z,55.20
2018-05-26T18:34:07.259Z,54.90
2018-05-26T18:36:37.076Z,55.30
2018-05-26T18:39:05.459Z,55.30
2018-05-26T18:41:34.703Z,55.70
2018-05-26T18:44:03.409Z,56.10
2018-05-26T18:46:32.441Z,56.30
2018-05-26T18:49:02.241Z,58.00
2018-05-26T18:51:31.375Z,57.30
2018-05-26T18:54:00.430Z,57.30
2018-05-26T18:56:29.509Z,58.70
2018-05-26T18:58:58.758Z,59.00
2018-05-26T19:01:27.818Z,59.70
2018-05-26T19:03:56.882Z,59.90
2018-05-26T19:06:25.930Z,60.60
2018-05-26T19:08:55.751Z,62.10
2018-05-26T19:11:24.822Z,62.10
2018-05-26T19:13:53.866Z,62.20
2018-05-26T19:16:22.914Z,62.40
2018-05-26T19:18:52.056Z,64.00
2018-05-26T19:21:22.223Z,65.10
2018-05-26T19:23:51.557Z,65.10
2018-05-26T19:26:20.984Z,65.80
2018-05-26T19:28:50.503Z,65.80
2018-05-26T19:31:19.557Z,66.40
2018-05-26T19:33:49.458Z,66.80
2018-05-26T19:36:18.508Z,66.80
2018-05-26T19:38:47.566Z,66.50
2018-05-26T19:41:16.633Z,66.40
2018-05-26T19:43:46.448Z,66.80
2018-05-26T19:46:15.502Z,66.80
2018-05-26T19:48:44.558Z,66.50
2018-05-26T19:51:13.593Z,66.20
2018-05-26T19:53:42.662Z,66.10
2018-05-26T19:56:11.759Z,66.20
2018-05-26T19:58:40.836Z,65.90
2018-05-26T20:01:09.879Z,66.10
2018-05-26T20:03:38.951Z,66.60
2018-05-26T20:06:08.111Z,66.90
2018-05-26T20:08:38.022Z,66.60
2018-05-26T20:11:07.114Z,66.70
2018-05-26T20:13:36.384Z,66.70
2018-05-26T20:16:05.898Z,66.20
2018-05-26T20:18:35.915Z,66.30
2018-05-26T20:21:05.401Z,66.30
2018-05-26T20:23:34.540Z,66.40
2018-05-26T20:26:03.315Z,66.50
2018-05-26T20:28:32.610Z,66.50
2018-05-26T20:31:02.486Z,66.70
2018-05-26T20:33:31.610Z,66.80
2018-05-26T20:36:01.472Z,67.10
2018-05-26T20:38:30.516Z,67.10
2018-05-26T20:40:59.620Z,67.20
2018-05-26T20:43:28.696Z,67.40
2018-05-26T20:45:58.529Z,67.60
2018-05-26T20:48:27.580Z,67.60
2018-05-26T20:50:56.642Z,67.70
2018-05-26T20:53:25.712Z,68.20
2018-05-26T20:55:54.780Z,68.30
2018-05-26T20:58:24.591Z,68.20
2018-05-26T21:00:54.446Z,68.40
2018-05-26T21:03:23.492Z,68.40
2018-05-26T21:05:52.544Z,69.20
2018-05-26T21:08:21.575Z,69.40
2018-05-26T21:10:50.628Z,69.50
2018-05-26T21:13:19.671Z,69.80
2018-05-26T21:15:49.497Z,70.10
2018-05-26T21:18:19.481Z,70.10
2018-05-26T21:20:48.752Z,70.30
2018-05-26T21:23:17.847Z,70.30
2018-05-26T21:25:47.105Z,70.70
2018-05-26T21:28:16.943Z,70.80
2018-05-26T21:30:46.039Z,70.80
2018-05-26T21:33:15.175Z,70.80
2018-05-26T21:35:44.275Z,70.80
2018-05-26T21:38:13.337Z,71.30
2018-05-26T21:40:42.591Z,71.70
2018-05-26T21:43:11.707Z,72.00
2018-05-26T21:45:40.788Z,72.50
2018-05-26T21:48:10.606Z,72.80
2018-05-26T21:50:40.444Z,72.70
2018-05-26T21:53:09.692Z,72.80
2018-05-26T21:55:38.073Z,73.10
2018-05-26T21:58:07.898Z,73.80
2018-05-26T22:00:37.696Z,74.20
2018-05-26T22:03:07.494Z,74.80
2018-05-26T22:05:36.605Z,74.60
2018-05-26T22:08:06.414Z,75.30
2018-05-26T22:10:36.245Z,74.90
2018-05-26T22:13:06.131Z,75.40
2018-05-26T22:15:35.606Z,76.10
2018-05-26T22:18:04.334Z,75.60
2018-05-26T23:55:14.162Z,79.30
2018-05-26T23:57:43.232Z,79.70
